createdAt,value
2023-10-27T00:00:48.164Z,37.80
2023-10-27T00:01:48.154Z,38.70
2023-10-27T00:02:48.164Z,36.70
2023-10-27T00:03:48.118Z,37.90
2023-10-27T00:04:48.192Z,38.70
2023-10-27T00:05:48.069Z,36.10
2023-10-27T00:06:48.132Z,35.90
2023-10-27T00:07:48.035Z,36.40
2023-10-27T00:08:48.019Z,36.60
2023-10-27T00:09:48.022Z,34.70
2023-10-27T00:10:47.997Z,36.30
2023-10-27T00:11:48.025Z,35.50
2023-10-27T00:12:48.043Z,37.30
2023-10-27T00:13:47.962Z,36.00
2023-10-27T00:14:47.941Z,34.80
2023-10-27T00:15:48.055Z,37.50
2023-10-27T00:16:47.919Z,38.00
2023-10-27T00:17:47.934Z,37.60
2023-10-27T00:18:47.942Z,37.00
2023-10-27T00:19:47.888Z,36.70
2023-10-27T00:20:47.856Z,37.50
2023-10-27T00:21:47.843Z,36.60
2023-10-27T00:22:47.835Z,36.50
2023-10-27T00:23:48.155Z,36.30
2023-10-27T00:24:47.811Z,36.80
2023-10-27T00:25:47.795Z,36.60
2023-10-27T00:26:47.781Z,34.40
2023-10-27T00:27:47.762Z,36.70
2023-10-27T00:28:47.751Z,35.50
2023-10-27T00:29:47.729Z,36.90
2023-10-27T00:30:47.720Z,37.10
2023-10-27T00:31:47.701Z,38.40
2023-10-27T00:32:47.897Z,37.50
2023-10-27T00:33:47.687Z,39.90
2023-10-27T00:34:47.750Z,38.60
2023-10-27T00:35:47.656Z,38.70
2023-10-27T00:36:47.672Z,38.40
2023-10-27T00:37:47.637Z,39.30
2023-10-27T00:38:47.663Z,39.30
2023-10-27T00:39:47.601Z,37.90
2023-10-27T00:40:47.622Z,38.50
2023-10-27T00:41:47.584Z,38.60
2023-10-27T00:42:47.612Z,37.80
2023-10-27T00:43:47.569Z,38.80
2023-10-27T00:44:47.532Z,37.90
2023-10-27T00:45:47.529Z,37.30
2023-10-27T00:46:47.523Z,37.50
2023-10-27T00:47:47.499Z,39.30
2023-10-27T00:48:47.507Z,38.10
2023-10-27T00:49:47.594Z,38.00
2023-10-27T00:50:47.486Z,39.30
2023-10-27T00:51:47.492Z,37.60
2023-10-27T00:52:47.421Z,38.20
2023-10-27T00:53:47.408Z,39.30
2023-10-27T00:54:47.403Z,39.20
2023-10-27T00:55:47.389Z,38.10
2023-10-27T00:56:47.374Z,40.40
2023-10-27T00:57:47.356Z,38.10
2023-10-27T00:58:47.362Z,38.90
2023-10-27T00:59:47.324Z,36.70
2023-10-27T01:00:47.340Z,37.40
2023-10-27T01:01:47.317Z,38.70
2023-10-27T01:02:47.389Z,38.10
2023-10-27T01:03:47.272Z,39.60
2023-10-27T01:04:47.501Z,38.10
2023-10-27T01:05:47.242Z,38.20
2023-10-27T01:06:47.235Z,38.60
2023-10-27T01:07:47.223Z,36.90
2023-10-27T01:08:47.216Z,37.50
2023-10-27T01:09:47.300Z,37.80
2023-10-27T01:10:47.172Z,37.10
2023-10-27T01:11:47.157Z,37.70
2023-10-27T01:12:47.145Z,38.80
2023-10-27T01:13:47.123Z,37.80
2023-10-27T01:14:47.104Z,37.70
2023-10-27T01:15:47.101Z,36.80
2023-10-27T01:16:47.132Z,37.50
2023-10-27T01:17:47.124Z,36.50
2023-10-27T01:18:47.177Z,35.20
2023-10-27T01:19:47.369Z,37.20
2023-10-27T01:20:47.105Z,36.90
2023-10-27T01:21:46.999Z,38.40
2023-10-27T01:22:47.037Z,39.10
2023-10-27T01:23:46.983Z,37.60
2023-10-27T01:24:47.192Z,36.70
2023-10-27T01:25:46.955Z,37.60
2023-10-27T01:26:46.990Z,38.00
2023-10-27T01:27:46.923Z,38.30
2023-10-27T01:28:46.914Z,36.70
2023-10-27T01:29:46.917Z,36.40
2023-10-27T01:30:46.891Z,37.40
2023-10-27T01:31:46.914Z,38.40
2023-10-27T01:32:46.988Z,35.40
2023-10-27T01:33:46.876Z,36.30
2023-10-27T01:34:46.879Z,36.80
2023-10-27T01:35:46.895Z,37.10
2023-10-27T01:36:46.790Z,36.20
2023-10-27T01:37:46.834Z,35.60
2023-10-27T01:38:46.854Z,35.50
2023-10-27T01:39:46.751Z,36.20
2023-10-27T01:40:46.791Z,36.40
2023-10-27T01:41:46.742Z,34.80
2023-10-27T01:42:46.725Z,35.00
2023-10-27T01:43:46.712Z,35.40
2023-10-27T01:44:46.681Z,34.60
2023-10-27T01:45:46.708Z,34.90
2023-10-27T01:46:46.658Z,33.40
2023-10-27T01:47:46.699Z,33.50
2023-10-27T01:48:46.724Z,34.00
2023-10-27T01:49:46.895Z,33.80
2023-10-27T01:50:46.620Z,33.30
2023-10-27T01:51:46.618Z,33.40
2023-10-27T01:52:46.641Z,33.90
2023-10-27T01:53:46.571Z,33.90
2023-10-27T01:54:46.545Z,34.30
2023-10-27T01:55:46.531Z,34.10
2023-10-27T01:56:46.512Z,34.30
2023-10-27T01:57:46.515Z,33.70
2023-10-27T01:58:46.481Z,32.40
2023-10-27T01:59:46.513Z,32.50
2023-10-27T02:00:46.466Z,32.70
2023-10-27T02:01:46.467Z,32.80
2023-10-27T02:02:46.486Z,32.50
2023-10-27T02:03:46.452Z,33.00
2023-10-27T02:04:46.533Z,32.90
2023-10-27T02:05:46.401Z,32.80
2023-10-27T02:06:46.417Z,33.40
2023-10-27T02:07:46.364Z,33.20
2023-10-27T02:08:46.410Z,31.30
2023-10-27T02:09:46.485Z,32.50
2023-10-27T02:10:46.351Z,32.20
2023-10-27T02:11:46.317Z,33.10
2023-10-27T02:12:46.299Z,32.30
2023-10-27T02:13:46.328Z,32.30
2023-10-27T02:14:46.354Z,32.60
2023-10-27T02:15:46.260Z,33.00
2023-10-27T02:16:46.262Z,32.60
2023-10-27T02:17:46.242Z,32.40
2023-10-27T02:18:46.244Z,32.80
2023-10-27T02:19:46.416Z,32.60
2023-10-27T02:20:46.206Z,32.90
2023-10-27T02:21:46.205Z,32.40
2023-10-27T02:22:46.153Z,30.60
2023-10-27T02:23:46.129Z,32.10
2023-10-27T02:24:46.140Z,31.80
2023-10-27T02:25:46.109Z,31.60
2023-10-27T02:26:46.137Z,31.10
2023-10-27T02:27:46.079Z,31.90
2023-10-27T02:28:46.074Z,33.20
2023-10-27T02:29:46.148Z,32.40
2023-10-27T02:30:46.232Z,32.30
2023-10-27T02:31:46.030Z,32.70
2023-10-27T02:32:46.028Z,31.80
2023-10-27T02:33:46.053Z,32.10
2023-10-27T02:34:46.020Z,31.10
2023-10-27T02:35:46.014Z,31.80
2023-10-27T02:36:45.981Z,31.30
2023-10-27T02:37:45.953Z,30.20
2023-10-27T02:38:45.985Z,32.40
2023-10-27T02:39:46.089Z,31.00
2023-10-27T02:40:45.916Z,32.00
2023-10-27T02:41:45.876Z,30.50
2023-10-27T02:42:45.883Z,31.40
2023-10-27T02:43:45.922Z,31.60
2023-10-27T02:44:45.838Z,33.10
2023-10-27T02:45:45.821Z,31.40
2023-10-27T02:46:45.828Z,32.30
2023-10-27T02:47:45.884Z,31.60
2023-10-27T02:48:45.808Z,32.40
2023-10-27T02:49:46.050Z,31.90
2023-10-27T02:50:45.757Z,31.90
2023-10-27T02:51:45.736Z,32.30
2023-10-27T02:52:45.734Z,31.70
2023-10-27T02:53:45.718Z,32.00
2023-10-27T02:54:45.698Z,31.70
2023-10-27T02:55:45.689Z,31.90
2023-10-27T02:56:45.669Z,31.50
2023-10-27T02:57:45.665Z,30.40
2023-10-27T02:58:45.644Z,32.50
2023-10-27T02:59:45.771Z,31.60
2023-10-27T03:00:45.764Z,30.50
2023-10-27T03:01:45.598Z,30.80
2023-10-27T03:02:45.622Z,30.00
2023-10-27T03:03:45.611Z,30.60
2023-10-27T03:04:45.613Z,31.50
2023-10-27T03:05:45.547Z,30.40
2023-10-27T03:06:45.527Z,31.30
2023-10-27T03:07:45.534Z,30.60
2023-10-27T03:08:45.522Z,30.80
2023-10-27T03:09:45.667Z,31.50
2023-10-27T03:10:45.493Z,30.40
2023-10-27T03:11:45.469Z,30.70
2023-10-27T03:12:45.477Z,29.60
2023-10-27T03:13:45.445Z,29.40
2023-10-27T03:14:45.414Z,30.80
2023-10-27T03:15:45.402Z,29.70
2023-10-27T03:16:45.442Z,30.00
2023-10-27T03:17:45.431Z,29.50
2023-10-27T03:18:45.439Z,28.70
2023-10-27T03:19:45.661Z,29.20
2023-10-27T03:20:45.342Z,28.80
2023-10-27T03:21:45.372Z,28.60
2023-10-27T03:22:45.312Z,29.50
2023-10-27T03:23:45.315Z,29.00
2023-10-27T03:24:45.305Z,30.50
2023-10-27T03:25:45.268Z,29.60
2023-10-27T03:26:45.268Z,28.90
2023-10-27T03:27:45.238Z,28.20
2023-10-27T03:28:45.217Z,29.00
2023-10-27T03:29:45.362Z,29.00
2023-10-27T03:30:45.212Z,28.80
2023-10-27T03:31:45.208Z,28.40
2023-10-27T03:32:45.227Z,30.00
2023-10-27T03:33:45.152Z,28.10
2023-10-27T03:34:45.175Z,28.20
2023-10-27T03:35:45.143Z,28.30
2023-10-27T03:36:45.167Z,27.30
2023-10-27T03:37:45.122Z,27.80
2023-10-27T03:38:45.119Z,28.10
2023-10-27T03:39:45.304Z,27.80
2023-10-27T03:40:45.116Z,28.10
2023-10-27T03:41:45.112Z,28.00
2023-10-27T03:42:45.060Z,27.60
2023-10-27T03:43:45.061Z,28.00
2023-10-27T03:44:45.050Z,28.10
2023-10-27T03:45:45.066Z,26.50
2023-10-27T03:46:45.002Z,28.10
2023-10-27T03:47:45.193Z,27.70
2023-10-27T03:48:45.026Z,26.70
2023-10-27T03:49:45.113Z,27.00
2023-10-27T03:50:44.971Z,25.90
2023-10-27T03:51:44.954Z,27.20
2023-10-27T03:52:44.949Z,28.00
2023-10-27T03:53:44.997Z,26.50
2023-10-27T03:54:44.952Z,25.80
2023-10-27T03:55:44.972Z,27.50
2023-10-27T03:56:44.891Z,26.40
2023-10-27T03:57:44.880Z,26.60
2023-10-27T03:58:48.380Z,26.90
2023-10-27T03:59:45.112Z,26.60
2023-10-27T04:00:44.856Z,27.40
2023-10-27T04:01:44.825Z,26.90
2023-10-27T04:02:44.817Z,26.80
2023-10-27T04:03:44.814Z,26.50
2023-10-27T04:04:45.004Z,27.70
2023-10-27T04:05:44.776Z,26.30
2023-10-27T04:06:44.851Z,25.40
2023-10-27T04:07:44.747Z,27.00
2023-10-27T04:08:44.732Z,25.90
2023-10-27T04:09:44.860Z,26.70
2023-10-27T04:10:44.718Z,25.90
2023-10-27T04:11:44.693Z,26.70
2023-10-27T04:12:44.727Z,25.80
2023-10-27T04:13:44.742Z,25.40
2023-10-27T04:14:44.644Z,25.80
2023-10-27T04:15:44.664Z,25.50
2023-10-27T04:16:44.630Z,24.80
2023-10-27T04:17:44.653Z,26.90
2023-10-27T04:18:44.635Z,26.80
2023-10-27T04:19:44.938Z,27.30
2023-10-27T04:20:44.564Z,26.70
2023-10-27T04:21:44.556Z,26.20
2023-10-27T04:22:44.534Z,26.30
2023-10-27T04:23:44.523Z,26.50
2023-10-27T04:24:44.520Z,26.00
2023-10-27T04:25:44.535Z,26.20
2023-10-27T04:26:44.492Z,25.80
2023-10-27T04:27:44.486Z,25.20
2023-10-27T04:28:44.459Z,25.80
2023-10-27T04:29:44.627Z,25.00
2023-10-27T04:30:44.563Z,24.80
2023-10-27T04:31:44.444Z,25.00
2023-10-27T04:32:44.434Z,23.40
2023-10-27T04:33:44.541Z,24.70
2023-10-27T04:34:44.377Z,24.80
2023-10-27T04:35:44.409Z,24.50
2023-10-27T04:36:44.360Z,25.00
2023-10-27T04:37:44.357Z,25.00
2023-10-27T04:38:44.326Z,24.10
2023-10-27T04:39:44.457Z,24.60
2023-10-27T04:40:44.326Z,25.30
2023-10-27T04:41:44.400Z,25.30
2023-10-27T04:42:44.313Z,25.40
2023-10-27T04:43:44.360Z,25.00
2023-10-27T04:44:44.264Z,24.70
2023-10-27T04:45:44.243Z,24.40
2023-10-27T04:46:44.333Z,24.70
2023-10-27T04:47:44.253Z,24.10
2023-10-27T04:48:44.260Z,23.60
2023-10-27T04:49:45.025Z,24.30
2023-10-27T04:50:44.164Z,24.60
2023-10-27T04:51:44.138Z,24.30
2023-10-27T04:52:44.230Z,24.00
2023-10-27T04:53:44.112Z,24.60
2023-10-27T04:54:44.108Z,23.90
2023-10-27T04:55:44.087Z,24.30
2023-10-27T04:56:44.065Z,24.00
2023-10-27T04:57:44.060Z,23.70
2023-10-27T04:58:44.071Z,24.10
2023-10-27T04:59:44.271Z,24.80
2023-10-27T05:00:44.020Z,24.00
2023-10-27T05:01:44.157Z,24.40
2023-10-27T05:02:44.002Z,23.90
2023-10-27T05:03:44.028Z,23.70
2023-10-27T05:04:44.046Z,23.50
2023-10-27T05:05:43.966Z,24.10
2023-10-27T05:06:44.065Z,24.80
2023-10-27T05:07:43.943Z,23.20
2023-10-27T05:08:43.921Z,25.00
2023-10-27T05:09:44.113Z,23.70
2023-10-27T05:10:43.883Z,22.40
2023-10-27T05:11:43.946Z,23.40
2023-10-27T05:12:43.845Z,24.60
2023-10-27T05:13:43.952Z,25.10
2023-10-27T05:14:43.821Z,23.40
2023-10-27T05:15:43.834Z,24.00
2023-10-27T05:16:43.829Z,22.90
2023-10-27T05:17:43.824Z,24.90
2023-10-27T05:18:43.865Z,23.90
2023-10-27T05:19:43.938Z,23.60
2023-10-27T05:20:43.809Z,24.10
2023-10-27T05:21:43.732Z,23.80
2023-10-27T05:22:43.758Z,23.00
2023-10-27T05:23:43.713Z,23.70
2023-10-27T05:24:43.688Z,23.30
2023-10-27T05:25:43.728Z,23.00
2023-10-27T05:26:43.696Z,24.50
2023-10-27T05:27:43.705Z,23.70
2023-10-27T05:28:43.661Z,23.70
2023-10-27T05:29:43.787Z,23.40
2023-10-27T05:30:43.648Z,24.00
2023-10-27T05:31:43.649Z,24.00
2023-10-27T05:32:43.653Z,23.10
2023-10-27T05:33:43.596Z,23.20
2023-10-27T05:34:43.625Z,23.10
2023-10-27T05:35:43.541Z,24.30
2023-10-27T05:36:43.536Z,24.50
2023-10-27T05:37:43.534Z,24.10
2023-10-27T05:38:43.505Z,26.10
2023-10-27T05:39:43.684Z,24.00
2023-10-27T05:40:43.541Z,23.80
2023-10-27T05:41:43.466Z,23.40
2023-10-27T05:42:43.450Z,23.80
2023-10-27T05:43:43.451Z,22.80
2023-10-27T05:44:43.463Z,22.50
2023-10-27T05:45:43.425Z,23.30
2023-10-27T05:46:43.423Z,22.70
2023-10-27T05:47:43.411Z,23.70
2023-10-27T05:48:43.416Z,23.70
2023-10-27T05:49:43.476Z,23.10
2023-10-27T05:50:43.389Z,23.10
2023-10-27T05:51:43.359Z,22.50
2023-10-27T05:52:43.408Z,23.80
2023-10-27T05:53:43.380Z,23.00
2023-10-27T05:54:43.268Z,22.10
2023-10-27T05:55:43.269Z,24.30
2023-10-27T05:56:43.268Z,23.00
2023-10-27T05:57:43.246Z,24.30
2023-10-27T05:58:43.272Z,23.80
2023-10-27T05:59:43.287Z,23.30
2023-10-27T06:00:43.182Z,22.40
2023-10-27T06:01:43.184Z,23.40
2023-10-27T06:02:43.198Z,24.20
2023-10-27T06:03:43.204Z,24.80
2023-10-27T06:04:43.183Z,23.70
2023-10-27T06:05:43.127Z,23.00
2023-10-27T06:06:43.157Z,24.20
2023-10-27T06:07:43.095Z,24.20
2023-10-27T06:08:43.067Z,23.50
2023-10-27T06:09:43.148Z,23.40
2023-10-27T06:10:43.056Z,23.90
2023-10-27T06:11:43.118Z,23.10
2023-10-27T06:12:43.026Z,24.00
2023-10-27T06:13:43.014Z,22.90
2023-10-27T06:14:43.042Z,24.00
2023-10-27T06:15:45.496Z,23.90
2023-10-27T06:16:42.973Z,23.80
2023-10-27T06:17:42.983Z,25.20
2023-10-27T06:18:42.940Z,23.50
2023-10-27T06:19:43.076Z,24.90
2023-10-27T06:20:43.170Z,24.60
2023-10-27T06:21:42.925Z,24.20
2023-10-27T06:22:42.892Z,24.10
2023-10-27T06:23:42.878Z,23.80
2023-10-27T06:24:42.908Z,25.10
2023-10-27T06:25:42.899Z,23.80
2023-10-27T06:26:42.818Z,24.80
2023-10-27T06:27:42.821Z,24.80
2023-10-27T06:28:42.825Z,24.50
2023-10-27T06:29:42.833Z,22.90
2023-10-27T06:30:42.772Z,24.30
2023-10-27T06:31:42.808Z,24.70
2023-10-27T06:32:42.772Z,23.70
2023-10-27T06:33:42.790Z,24.10
2023-10-27T06:34:42.794Z,24.10
2023-10-27T06:35:42.731Z,22.70
2023-10-27T06:36:42.683Z,23.30
2023-10-27T06:37:42.729Z,23.70
2023-10-27T06:38:42.663Z,23.00
2023-10-27T06:39:42.669Z,24.10
2023-10-27T06:40:42.675Z,22.30
2023-10-27T06:41:42.676Z,21.90
2023-10-27T06:42:42.643Z,22.70
2023-10-27T06:43:42.658Z,22.90
2023-10-27T06:44:42.583Z,21.80
2023-10-27T06:45:42.605Z,22.60
2023-10-27T06:46:42.583Z,22.10
2023-10-27T06:47:42.553Z,23.00
2023-10-27T06:48:42.582Z,22.30
2023-10-27T06:49:42.802Z,22.10
2023-10-27T06:50:42.510Z,22.00
2023-10-27T06:51:43.487Z,21.10
2023-10-27T06:52:42.559Z,23.30
2023-10-27T06:53:42.486Z,22.30
2023-10-27T06:54:42.499Z,22.60
2023-10-27T06:55:42.486Z,22.30
2023-10-27T06:56:42.409Z,22.00
2023-10-27T06:57:42.416Z,21.20
2023-10-27T06:58:42.410Z,21.40
2023-10-27T06:59:42.384Z,20.90
2023-10-27T07:00:42.367Z,22.60
2023-10-27T07:01:43.957Z,21.60
2023-10-27T07:02:55.753Z,21.10
2023-10-27T07:03:42.379Z,21.50
2023-10-27T07:04:42.543Z,21.90
2023-10-27T07:05:42.294Z,22.50
2023-10-27T07:06:42.403Z,22.90
2023-10-27T07:07:42.282Z,22.10
2023-10-27T07:08:42.248Z,22.70
2023-10-27T07:09:42.251Z,21.30
2023-10-27T07:10:42.293Z,20.90
2023-10-27T07:11:42.239Z,20.40
2023-10-27T07:12:42.216Z,20.20
2023-10-27T07:13:42.225Z,22.70
2023-10-27T07:14:42.190Z,21.20
2023-10-27T07:15:42.156Z,21.90
2023-10-27T07:16:42.211Z,21.70
2023-10-27T07:17:42.182Z,21.60
2023-10-27T07:18:42.162Z,21.80
2023-10-27T07:19:42.226Z,20.40
2023-10-27T07:20:42.120Z,21.10
2023-10-27T07:21:42.149Z,21.90
2023-10-27T07:22:42.090Z,22.30
2023-10-27T07:23:42.042Z,20.60
2023-10-27T07:24:42.036Z,21.30
2023-10-27T07:25:42.159Z,20.80
2023-10-27T07:26:42.016Z,21.30
2023-10-27T07:27:42.025Z,21.00
2023-10-27T07:28:42.058Z,21.10
2023-10-27T07:29:41.982Z,21.80
2023-10-27T07:30:42.143Z,20.60
2023-10-27T07:31:41.940Z,20.20
2023-10-27T07:32:42.026Z,21.40
2023-10-27T07:33:42.048Z,19.90
2023-10-27T07:34:41.987Z,19.50
2023-10-27T07:35:41.910Z,20.00
2023-10-27T07:36:41.937Z,21.20
2023-10-27T07:37:41.957Z,21.10
2023-10-27T07:38:41.909Z,20.50
2023-10-27T07:39:41.864Z,20.30
2023-10-27T07:40:41.885Z,19.70
2023-10-27T07:41:41.785Z,19.90
2023-10-27T07:42:41.788Z,20.00
2023-10-27T07:43:41.868Z,20.80
2023-10-27T07:44:41.798Z,20.20
2023-10-27T07:45:41.820Z,20.80
2023-10-27T07:46:41.769Z,20.60
2023-10-27T07:47:41.762Z,20.60
2023-10-27T07:48:41.756Z,20.50
2023-10-27T07:49:41.734Z,20.40
2023-10-27T07:50:41.737Z,19.80
2023-10-27T07:51:41.687Z,20.20
2023-10-27T07:52:41.713Z,19.50
2023-10-27T07:53:43.834Z,21.00
2023-10-27T07:54:41.623Z,20.00
2023-10-27T07:55:41.672Z,19.50
2023-10-27T07:56:41.743Z,19.70
2023-10-27T07:57:41.665Z,20.40
2023-10-27T07:58:41.644Z,19.70
2023-10-27T07:59:41.568Z,20.30
2023-10-27T08:00:41.568Z,20.10
2023-10-27T08:01:41.605Z,19.40
2023-10-27T08:02:41.659Z,19.50
2023-10-27T08:03:41.596Z,20.30
2023-10-27T08:04:41.607Z,21.00
2023-10-27T08:05:41.496Z,19.80
2023-10-27T08:06:41.484Z,20.30
2023-10-27T08:07:41.568Z,20.30
2023-10-27T08:08:41.489Z,20.80
2023-10-27T08:09:41.474Z,18.90
2023-10-27T08:10:41.490Z,19.60
2023-10-27T08:11:41.515Z,19.50
2023-10-27T08:12:41.429Z,19.80
2023-10-27T08:13:41.448Z,19.10
2023-10-27T08:14:41.376Z,19.70
2023-10-27T08:15:41.347Z,20.40
2023-10-27T08:16:41.394Z,19.20
2023-10-27T08:17:41.339Z,20.60
2023-10-27T08:18:41.318Z,20.20
2023-10-27T08:19:41.330Z,20.10
2023-10-27T08:20:41.276Z,20.00
2023-10-27T08:21:41.276Z,19.00
2023-10-27T08:22:41.344Z,19.70
2023-10-27T08:23:41.248Z,20.60
2023-10-27T08:24:41.243Z,19.90
2023-10-27T08:25:41.293Z,19.20
2023-10-27T08:26:41.200Z,19.60
2023-10-27T08:27:41.202Z,19.50
2023-10-27T08:28:41.235Z,19.00
2023-10-27T08:29:41.243Z,19.00
2023-10-27T08:30:41.145Z,19.50
2023-10-27T08:31:41.252Z,18.70
2023-10-27T08:32:41.163Z,19.70
2023-10-27T08:33:41.181Z,18.90
2023-10-27T08:34:41.243Z,18.80
2023-10-27T08:35:41.077Z,18.60
2023-10-27T08:36:41.057Z,19.20
2023-10-27T08:37:41.088Z,19.60
2023-10-27T08:38:41.034Z,19.50
2023-10-27T08:39:41.074Z,19.90
2023-10-27T08:40:41.079Z,19.00
2023-10-27T08:41:40.998Z,19.10
2023-10-27T08:42:40.977Z,18.50
2023-10-27T08:43:41.021Z,18.40
2023-10-27T08:44:40.980Z,18.80
2023-10-27T08:45:40.944Z,18.50
2023-10-27T08:46:40.974Z,17.60
2023-10-27T08:47:41.055Z,17.60
2023-10-27T08:48:40.948Z,17.40
2023-10-27T08:49:40.994Z,17.90
2023-10-27T08:50:40.884Z,18.20
2023-10-27T08:51:40.876Z,17.20
2023-10-27T08:52:40.949Z,16.60
2023-10-27T08:53:40.832Z,17.10
2023-10-27T08:54:40.830Z,17.40
2023-10-27T08:55:40.822Z,17.50
2023-10-27T08:56:40.788Z,17.40
2023-10-27T08:57:40.756Z,16.90
2023-10-27T08:58:40.802Z,16.40
2023-10-27T08:59:40.755Z,16.80
2023-10-27T09:00:40.740Z,17.30
2023-10-27T09:01:40.745Z,16.70
2023-10-27T09:02:40.793Z,17.10
2023-10-27T09:03:40.680Z,17.10
2023-10-27T09:04:40.939Z,16.80
2023-10-27T09:05:40.828Z,16.20
2023-10-27T09:06:40.653Z,17.20
2023-10-27T09:07:40.694Z,16.00
2023-10-27T09:08:40.664Z,16.30
2023-10-27T09:09:40.646Z,17.00
2023-10-27T09:10:40.623Z,16.40
2023-10-27T09:11:40.831Z,16.80
2023-10-27T09:12:40.681Z,17.80
2023-10-27T09:13:40.685Z,17.40
2023-10-27T09:14:40.617Z,17.60
2023-10-27T09:15:40.610Z,16.80
2023-10-27T09:16:40.549Z,17.10
2023-10-27T09:17:40.658Z,16.30
2023-10-27T09:18:40.613Z,16.80
2023-10-27T09:19:40.684Z,16.20
2023-10-27T09:20:40.578Z,17.20
2023-10-27T09:21:40.578Z,17.50
2023-10-27T09:22:45.756Z,16.60
2023-10-27T09:23:40.427Z,16.80
2023-10-27T09:24:40.394Z,16.50
2023-10-27T09:25:40.423Z,15.60
2023-10-27T09:26:40.415Z,16.30
2023-10-27T09:27:40.400Z,16.40
2023-10-27T09:28:40.371Z,16.10
2023-10-27T09:29:40.337Z,16.80
2023-10-27T09:30:40.358Z,17.20
2023-10-27T09:31:40.320Z,16.80
2023-10-27T09:32:40.416Z,16.50
2023-10-27T09:33:40.355Z,17.00
2023-10-27T09:34:40.378Z,17.00
2023-10-27T09:35:40.243Z,17.20
2023-10-27T09:36:40.392Z,15.60
2023-10-27T09:37:40.418Z,16.00
2023-10-27T09:38:40.200Z,16.00
2023-10-27T09:39:40.198Z,16.80
2023-10-27T09:40:40.221Z,15.60
2023-10-27T09:41:40.197Z,16.10
2023-10-27T09:42:40.173Z,16.70
2023-10-27T09:43:40.249Z,15.40
2023-10-27T09:44:40.134Z,16.10
2023-10-27T09:45:40.168Z,15.50
2023-10-27T09:46:40.193Z,15.40
2023-10-27T09:47:40.247Z,15.50
2023-10-27T09:48:40.234Z,15.40
2023-10-27T09:49:40.151Z,16.50
2023-10-27T09:50:40.045Z,15.20
2023-10-27T09:51:40.049Z,14.80
2023-10-27T09:52:40.080Z,15.20
2023-10-27T09:53:40.012Z,14.90
2023-10-27T09:54:40.000Z,16.00
2023-10-27T09:55:40.563Z,15.30
2023-10-27T09:56:39.962Z,14.60
2023-10-27T09:57:39.996Z,15.30
2023-10-27T09:58:40.391Z,14.50
2023-10-27T09:59:39.904Z,15.00
2023-10-27T10:00:39.964Z,14.80
2023-10-27T10:01:39.938Z,14.40
2023-10-27T10:02:39.958Z,14.70
2023-10-27T10:03:39.926Z,14.70
2023-10-27T10:04:39.920Z,15.30
2023-10-27T10:05:39.881Z,14.60
2023-10-27T10:06:49.096Z,15.40
2023-10-27T10:07:39.965Z,15.90
2023-10-27T10:08:40.201Z,14.70
2023-10-27T10:09:40.612Z,14.80
2023-10-27T10:10:39.863Z,15.00
2023-10-27T10:11:39.780Z,15.50
2023-10-27T10:12:39.898Z,14.50
2023-10-27T10:13:39.834Z,14.80
2023-10-27T10:14:39.733Z,13.90
2023-10-27T10:15:39.696Z,15.40
2023-10-27T10:16:39.720Z,13.50
2023-10-27T10:17:39.741Z,14.40
2023-10-27T10:18:39.838Z,13.60
2023-10-27T10:19:39.723Z,14.60
2023-10-27T10:20:39.749Z,14.70
2023-10-27T10:21:39.678Z,13.70
2023-10-27T10:22:39.698Z,13.40
2023-10-27T10:23:39.594Z,14.30
2023-10-27T10:24:39.673Z,14.30
2023-10-27T10:25:39.772Z,14.40
2023-10-27T10:26:39.590Z,14.00
2023-10-27T10:27:39.565Z,13.80
2023-10-27T10:28:39.640Z,14.30
2023-10-27T10:29:39.610Z,14.00
2023-10-27T10:30:39.493Z,14.30
2023-10-27T10:31:39.581Z,13.90
2023-10-27T10:32:39.600Z,14.50
2023-10-27T10:33:39.531Z,14.70
2023-10-27T10:34:39.592Z,15.00
2023-10-27T10:35:39.494Z,15.10
2023-10-27T10:36:39.437Z,14.00
2023-10-27T10:37:40.229Z,15.20
2023-10-27T10:38:39.426Z,13.60
2023-10-27T10:39:39.358Z,13.40
2023-10-27T10:40:39.408Z,14.10
2023-10-27T10:41:39.399Z,12.70
2023-10-27T10:42:39.618Z,13.90
2023-10-27T10:43:39.446Z,12.90
2023-10-27T10:44:39.308Z,12.20
2023-10-27T10:45:39.308Z,14.20
2023-10-27T10:46:39.311Z,12.40
2023-10-27T10:47:39.420Z,13.50
2023-10-27T10:48:39.883Z,12.60
2023-10-27T10:49:39.314Z,11.70
2023-10-27T10:50:39.223Z,12.90
2023-10-27T10:51:39.240Z,12.60
2023-10-27T10:52:39.239Z,12.50
2023-10-27T10:53:39.265Z,12.20
2023-10-27T10:54:39.202Z,12.60
2023-10-27T10:55:39.182Z,11.60
2023-10-27T10:56:39.201Z,12.00
2023-10-27T10:57:39.119Z,11.20
2023-10-27T10:58:39.191Z,11.50
2023-10-27T10:59:39.401Z,12.00
2023-10-27T11:00:39.073Z,10.90
2023-10-27T11:01:39.095Z,10.70
2023-10-27T11:02:39.145Z,11.40
2023-10-27T11:03:39.245Z,11.30
2023-10-27T11:04:42.491Z,11.70
2023-10-27T11:05:39.043Z,11.00
2023-10-27T11:06:39.023Z,11.40
2023-10-27T11:07:38.994Z,11.10
2023-10-27T11:08:39.176Z,10.80
2023-10-27T11:09:38.963Z,10.60
2023-10-27T11:10:39.150Z,10.50
2023-10-27T11:11:47.920Z,10.70
2023-10-27T11:12:39.170Z,10.10
2023-10-27T11:13:38.978Z,10.70
2023-10-27T11:14:38.884Z,10.20
2023-10-27T11:15:38.894Z,10.80
2023-10-27T11:16:38.919Z,10.60
2023-10-27T11:17:38.849Z,10.30
2023-10-27T11:18:39.166Z,9.70
2023-10-27T11:19:41.022Z,10.50
2023-10-27T11:20:38.888Z,10.80
2023-10-27T11:21:38.921Z,11.80
2023-10-27T11:22:39.235Z,10.90
2023-10-27T11:23:38.820Z,10.80
2023-10-27T11:24:38.726Z,10.60
2023-10-27T11:25:38.745Z,11.00
2023-10-27T11:26:38.707Z,10.50
2023-10-27T11:27:38.753Z,10.10
2023-10-27T11:28:40.539Z,9.40
2023-10-27T11:29:38.674Z,9.60
2023-10-27T11:30:38.898Z,10.20
2023-10-27T11:31:38.676Z,10.90
2023-10-27T11:32:38.671Z,10.40
2023-10-27T11:33:38.650Z,9.70
2023-10-27T11:34:38.618Z,9.70
2023-10-27T11:35:38.629Z,10.10
2023-10-27T11:36:38.613Z,9.70
2023-10-27T11:37:38.608Z,9.00
2023-10-27T11:38:38.557Z,9.10
2023-10-27T11:39:38.596Z,9.20
2023-10-27T11:40:38.623Z,8.60
2023-10-27T11:41:38.517Z,9.20
2023-10-27T11:42:38.501Z,8.50
2023-10-27T11:43:38.535Z,7.90
2023-10-27T11:44:38.500Z,8.10
2023-10-27T11:45:38.460Z,8.00
2023-10-27T11:46:38.694Z,8.40
2023-10-27T11:47:38.620Z,8.20
2023-10-27T11:48:38.519Z,8.00
2023-10-27T11:49:38.445Z,8.40
2023-10-27T11:50:38.450Z,8.40
2023-10-27T11:51:38.496Z,8.60
2023-10-27T11:52:38.403Z,8.80
2023-10-27T11:53:38.364Z,9.50
2023-10-27T11:54:38.387Z,8.60
2023-10-27T11:55:38.378Z,7.90
2023-10-27T11:56:38.328Z,7.60
2023-10-27T11:57:38.317Z,8.00
2023-10-27T11:58:38.846Z,8.40
2023-10-27T11:59:38.279Z,8.20
2023-10-27T12:00:38.286Z,8.00
2023-10-27T12:01:38.718Z,9.00
2023-10-27T12:02:38.363Z,7.80
2023-10-27T12:03:38.308Z,8.50
2023-10-27T12:04:38.256Z,8.80
2023-10-27T12:05:38.235Z,8.60
2023-10-27T12:06:38.160Z,8.20
2023-10-27T12:07:38.245Z,7.60
2023-10-27T12:08:38.133Z,7.50
2023-10-27T12:09:38.434Z,7.40
2023-10-27T12:10:38.264Z,8.00
2023-10-27T12:11:38.318Z,7.00
2023-10-27T12:12:38.161Z,7.50
2023-10-27T12:13:38.223Z,7.10
2023-10-27T12:14:38.352Z,7.50
2023-10-27T12:15:38.122Z,6.80
2023-10-27T12:16:38.107Z,7.10
2023-10-27T12:17:38.085Z,7.40
2023-10-27T12:18:38.714Z,7.00
2023-10-27T12:19:38.240Z,6.90
2023-10-27T12:20:37.956Z,6.80
2023-10-27T12:21:38.199Z,7.10
2023-10-27T12:22:37.980Z,7.70
2023-10-27T12:23:38.253Z,6.80
2023-10-27T12:24:38.222Z,7.20
2023-10-27T12:25:38.024Z,7.20
2023-10-27T12:26:37.935Z,7.30
2023-10-27T12:27:37.902Z,7.80
2023-10-27T12:28:37.972Z,7.10
2023-10-27T12:29:37.963Z,7.50
2023-10-27T12:30:38.009Z,7.60
2023-10-27T12:31:38.550Z,7.80
2023-10-27T12:32:37.839Z,7.60
2023-10-27T12:33:38.227Z,7.70
2023-10-27T12:34:38.129Z,7.70
2023-10-27T12:35:37.794Z,8.20
2023-10-27T12:36:37.786Z,8.20
2023-10-27T12:37:37.780Z,8.30
2023-10-27T12:38:39.586Z,8.30
2023-10-27T12:39:38.549Z,8.20
2023-10-27T12:40:37.712Z,7.90
2023-10-27T12:41:37.704Z,8.20
2023-10-27T12:42:37.666Z,7.20
2023-10-27T12:43:37.726Z,7.10
2023-10-27T12:44:37.704Z,6.80
2023-10-27T12:45:37.769Z,6.10
2023-10-27T12:46:37.669Z,5.60
2023-10-27T12:47:37.612Z,5.60
2023-10-27T12:48:37.619Z,5.70
2023-10-27T12:49:37.702Z,5.60
2023-10-27T12:50:37.765Z,5.50
2023-10-27T12:51:37.547Z,5.50
2023-10-27T12:52:37.553Z,4.90
2023-10-27T12:53:37.542Z,4.90
2023-10-27T12:54:37.526Z,4.80
2023-10-27T12:55:37.564Z,4.80